Pagina principale
METAR-TAF:

METAR-TAF

Aeroporti :

Sion, Svizzera

latitudine: 46-13N, longitudine: 007-20E, altezza: 482 m

Osservazione

Il bollettino è stato emesso 9 minuti fa, alle 06:50 UTC
Vento 5 kt da est, variando fra nord-est e est/sud-est
Temperature 18°C
Umidità 64%
Pressione 1016 hPa
Visibilità 10 km o più
nessuna nube inferiore a 1500 m e nessun cumulonembo

METAR: LSGS 190650Z 08005KT 040V110 CAVOK 18/11 Q1016

Ora: 08:59 (06:59 UTC)

Previsione

Il bollettino è stato emesso 1 ora e 34 minuti fa, alle 05:25 UTC
Previsione valida dal 19 alle 06 UTC al 19 alle 15 UTC
Vento 3 kt da direzioni variabili
Visibilità 10 km o più
nessuna nube inferiore a 1500 m e nessun cumulonembo
Evoluzione graduale
dal 19 alle 10 UTC al 19 alle 12 UTC
Vento 15 kt da ovest/sud-ovest
Visibilità 10 km o più
Nubi sparse ad un'altezza di 10000 ft, Cumulo congesto.

TAF: LSGS 190525Z 1906/1915 VRB03KT CAVOK BECMG 1910/1912 25015KT 9999 SCT100TCU

Osservazioni e previsioni meteorologiche di più di 4000 aeroporti (messaggi METAR e TAF).

Le stazioni disponibili sono rappresentate dai dischi gialli e rossi sulla carta.

Puntare il mouse per vedere il nome della stazione.

Clicca sopra per visualizzare le osservazioni e previsioni meteorologiche.

Per cambiare la mappa : fare clic sui pulsanti verdi con una croce nera per ingrandire, il pulsante verde con un trattino per diminuire, o sulla freccia verde per le mappe adiacenti.


METAR-TAF: